sensor_id;sensor_type;location;lat;lon;timestamp;temperature;humidity
75489;HTU21D;64069;46.396;48.102;2023-04-19T00:02:17;7.34;81.81
75489;HTU21D;64069;46.396;48.102;2023-04-19T00:04:43;7.34;81.24
75489;HTU21D;64069;46.396;48.102;2023-04-19T00:07:10;7.35;81.56
75489;HTU21D;64069;46.396;48.102;2023-04-19T00:09:35;7.39;81.94
75489;HTU21D;64069;46.396;48.102;2023-04-19T00:12:02;7.44;82.19
75489;HTU21D;64069;46.396;48.102;2023-04-19T00:14:28;7.50;82.19
75489;HTU21D;64069;46.396;48.102;2023-04-19T00:16:53;7.56;81.78
75489;HTU21D;64069;46.396;48.102;2023-04-19T00:19:19;7.58;82.18
75489;HTU21D;64069;46.396;48.102;2023-04-19T00:21:46;7.58;81.79
75489;HTU21D;64069;46.396;48.102;2023-04-19T00:24:12;7.58;81.48
75489;HTU21D;64069;46.396;48.102;2023-04-19T00:26:38;7.58;81.49
75489;HTU21D;64069;46.396;48.102;2023-04-19T00:29:03;7.56;81.30
75489;HTU21D;64069;46.396;48.102;2023-04-19T00:31:29;7.53;80.94
75489;HTU21D;64069;46.396;48.102;2023-04-19T00:33:55;7.49;81.25
75489;HTU21D;64069;46.396;48.102;2023-04-19T00:36:25;7.46;81.04
75489;HTU21D;64069;46.396;48.102;2023-04-19T00:38:51;7.43;80.81
75489;HTU21D;64069;46.396;48.102;2023-04-19T00:41:17;7.43;81.01
75489;HTU21D;64069;46.396;48.102;2023-04-19T00:43:43;7.44;80.84
75489;HTU21D;64069;46.396;48.102;2023-04-19T00:46:08;7.45;80.71
75489;HTU21D;64069;46.396;48.102;2023-04-19T00:48:34;7.47;80.42
75489;HTU21D;64069;46.396;48.102;2023-04-19T00:51:00;7.50;80.24
75489;HTU21D;64069;46.396;48.102;2023-04-19T00:53:26;7.55;80.14
75489;HTU21D;64069;46.396;48.102;2023-04-19T00:55:52;7.60;79.78
75489;HTU21D;64069;46.396;48.102;2023-04-19T00:58:22;7.65;79.52
75489;HTU21D;64069;46.396;48.102;2023-04-19T01:00:48;7.73;79.27
75489;HTU21D;64069;46.396;48.102;2023-04-19T01:03:14;7.79;79.03
75489;HTU21D;64069;46.396;48.102;2023-04-19T01:05:41;7.82;78.66
75489;HTU21D;64069;46.396;48.102;2023-04-19T01:08:11;7.81;78.56
75489;HTU21D;64069;46.396;48.102;2023-04-19T01:10:37;7.79;78.48
75489;HTU21D;64069;46.396;48.102;2023-04-19T01:13:03;7.79;78.35
75489;HTU21D;64069;46.396;48.102;2023-04-19T01:15:29;7.82;78.20
75489;HTU21D;64069;46.396;48.102;2023-04-19T01:17:55;7.84;78.03
75489;HTU21D;64069;46.396;48.102;2023-04-19T01:20:21;7.85;78.00
75489;HTU21D;64069;46.396;48.102;2023-04-19T01:22:47;7.85;77.93
75489;HTU21D;64069;46.396;48.102;2023-04-19T01:25:12;7.83;77.68
75489;HTU21D;64069;46.396;48.102;2023-04-19T01:27:41;7.82;77.68
75489;HTU21D;64069;46.396;48.102;2023-04-19T01:30:07;7.79;77.71
75489;HTU21D;64069;46.396;48.102;2023-04-19T01:32:33;7.78;77.53
75489;HTU21D;64069;46.396;48.102;2023-04-19T01:34:58;7.75;77.54
75489;HTU21D;64069;46.396;48.102;2023-04-19T01:37:24;7.73;77.47
75489;HTU21D;64069;46.396;48.102;2023-04-19T01:39:50;7.71;77.41
75489;HTU21D;64069;46.396;48.102;2023-04-19T01:42:16;7.73;77.34
75489;HTU21D;64069;46.396;48.102;2023-04-19T01:44:41;7.77;77.31
75489;HTU21D;64069;46.396;48.102;2023-04-19T01:47:07;7.81;77.31
75489;HTU21D;64069;46.396;48.102;2023-04-19T01:49:33;7.85;77.24
75489;HTU21D;64069;46.396;48.102;2023-04-19T01:51:58;7.87;77.09
75489;HTU21D;64069;46.396;48.102;2023-04-19T01:54:25;7.90;77.16
75489;HTU21D;64069;46.396;48.102;2023-04-19T01:56:51;7.92;76.89
75489;HTU21D;64069;46.396;48.102;2023-04-19T01:59:18;7.91;76.89
75489;HTU21D;64069;46.396;48.102;2023-04-19T02:01:44;7.94;76.71
75489;HTU21D;64069;46.396;48.102;2023-04-19T02:04:09;7.98;76.60
75489;HTU21D;64069;46.396;48.102;2023-04-19T02:06:35;8.01;76.59
75489;HTU21D;64069;46.396;48.102;2023-04-19T02:09:03;8.05;76.47
75489;HTU21D;64069;46.396;48.102;2023-04-19T02:11:28;8.08;76.24
75489;HTU21D;64069;46.396;48.102;2023-04-19T02:13:54;8.12;76.11
75489;HTU21D;64069;46.396;48.102;2023-04-19T02:16:20;8.17;76.05
75489;HTU21D;64069;46.396;48.102;2023-04-19T02:18:45;8.20;75.89
75489;HTU21D;64069;46.396;48.102;2023-04-19T02:21:12;8.22;75.95
75489;HTU21D;64069;46.396;48.102;2023-04-19T02:23:38;8.26;75.65
75489;HTU21D;64069;46.396;48.102;2023-04-19T02:26:04;8.26;75.73
75489;HTU21D;64069;46.396;48.102;2023-04-19T02:28:30;8.27;75.70
75489;HTU21D;64069;46.396;48.102;2023-04-19T02:30:56;8.32;75.63
75489;HTU21D;64069;46.396;48.102;2023-04-19T02:33:22;8.32;75.57
75489;HTU21D;64069;46.396;48.102;2023-04-19T02:35:48;8.34;75.50
75489;HTU21D;64069;46.396;48.102;2023-04-19T02:38:14;8.38;75.40
75489;HTU21D;64069;46.396;48.102;2023-04-19T02:40:39;8.43;75.33
75489;HTU21D;64069;46.396;48.102;2023-04-19T02:43:05;8.49;75.15
75489;HTU21D;64069;46.396;48.102;2023-04-19T02:45:31;8.55;75.04
75489;HTU21D;64069;46.396;48.102;2023-04-19T02:47:57;8.62;74.92
75489;HTU21D;64069;46.396;48.102;2023-04-19T02:50:25;8.71;74.64
75489;HTU21D;64069;46.396;48.102;2023-04-19T02:52:51;8.82;74.38
75489;HTU21D;64069;46.396;48.102;2023-04-19T02:55:19;8.95;74.06
75489;HTU21D;64069;46.396;48.102;2023-04-19T02:57:48;9.05;73.80
75489;HTU21D;64069;46.396;48.102;2023-04-19T03:00:14;9.07;73.77
75489;HTU21D;64069;46.396;48.102;2023-04-19T03:02:48;9.08;73.73
75489;HTU21D;64069;46.396;48.102;2023-04-19T03:05:14;9.09;73.78
75489;HTU21D;64069;46.396;48.102;2023-04-19T03:07:40;9.12;73.67
75489;HTU21D;64069;46.396;48.102;2023-04-19T03:10:06;9.18;73.63
75489;HTU21D;64069;46.396;48.102;2023-04-19T03:12:32;9.26;73.47
75489;HTU21D;64069;46.396;48.102;2023-04-19T03:14:58;9.37;73.28
75489;HTU21D;64069;46.396;48.102;2023-04-19T03:17:24;9.48;73.06
75489;HTU21D;64069;46.396;48.102;2023-04-19T03:19:51;9.62;72.83
75489;HTU21D;64069;46.396;48.102;2023-04-19T03:22:17;9.78;72.55
75489;HTU21D;64069;46.396;48.102;2023-04-19T03:24:43;9.91;72.28
75489;HTU21D;64069;46.396;48.102;2023-04-19T03:27:21;10.03;72.09
75489;HTU21D;64069;46.396;48.102;2023-04-19T03:29:52;10.23;71.78
75489;HTU21D;64069;46.396;48.102;2023-04-19T03:32:20;10.46;71.39
75489;HTU21D;64069;46.396;48.102;2023-04-19T03:34:45;10.73;70.97
75489;HTU21D;64069;46.396;48.102;2023-04-19T03:37:14;11.00;70.51
75489;HTU21D;64069;46.396;48.102;2023-04-19T03:39:40;11.23;70.11
75489;HTU21D;64069;46.396;48.102;2023-04-19T03:42:11;11.42;69.64
75489;HTU21D;64069;46.396;48.102;2023-04-19T03:45:03;11.69;69.35
75489;HTU21D;64069;46.396;48.102;2023-04-19T03:47:31;11.94;68.78
75489;HTU21D;64069;46.396;48.102;2023-04-19T03:49:58;12.03;68.21
75489;HTU21D;64069;46.396;48.102;2023-04-19T03:52:23;12.13;68.06
75489;HTU21D;64069;46.396;48.102;2023-04-19T03:54:50;12.18;67.92
75489;HTU21D;64069;46.396;48.102;2023-04-19T03:57:27;12.25;67.79
75489;HTU21D;64069;46.396;48.102;2023-04-19T03:59:53;12.35;67.71
75489;HTU21D;64069;46.396;48.102;2023-04-19T04:02:19;12.58;67.35
75489;HTU21D;64069;46.396;48.102;2023-04-19T04:04:45;12.79;66.52
75489;HTU21D;64069;46.396;48.102;2023-04-19T04:07:11;12.90;65.97
75489;HTU21D;64069;46.396;48.102;2023-04-19T04:09:38;12.96;65.32
75489;HTU21D;64069;46.396;48.102;2023-04-19T04:12:04;12.93;65.42
75489;HTU21D;64069;46.396;48.102;2023-04-19T04:14:30;12.93;64.49
75489;HTU21D;64069;46.396;48.102;2023-04-19T04:16:56;12.95;64.66
75489;HTU21D;64069;46.396;48.102;2023-04-19T04:19:22;12.97;63.50
75489;HTU21D;64069;46.396;48.102;2023-04-19T04:21:48;12.97;62.09
75489;HTU21D;64069;46.396;48.102;2023-04-19T04:24:16;13.03;62.53
75489;HTU21D;64069;46.396;48.102;2023-04-19T04:27:00;13.18;62.63
75489;HTU21D;64069;46.396;48.102;2023-04-19T04:29:31;13.35;61.64
75489;HTU21D;64069;46.396;48.102;2023-04-19T04:31:59;13.50;61.45
75489;HTU21D;64069;46.396;48.102;2023-04-19T04:34:31;13.70;60.64
75489;HTU21D;64069;46.396;48.102;2023-04-19T04:37:05;13.77;60.26
75489;HTU21D;64069;46.396;48.102;2023-04-19T04:39:32;13.86;60.05
75489;HTU21D;64069;46.396;48.102;2023-04-19T04:42:04;13.99;59.72
75489;HTU21D;64069;46.396;48.102;2023-04-19T04:44:32;14.11;58.23
75489;HTU21D;64069;46.396;48.102;2023-04-19T04:46:58;14.32;58.35
75489;HTU21D;64069;46.396;48.102;2023-04-19T04:49:26;14.55;56.72
75489;HTU21D;64069;46.396;48.102;2023-04-19T04:51:52;14.72;55.36
75489;HTU21D;64069;46.396;48.102;2023-04-19T04:54:19;14.77;52.84
75489;HTU21D;64069;46.396;48.102;2023-04-19T04:56:46;14.83;52.94
75489;HTU21D;64069;46.396;48.102;2023-04-19T04:59:12;14.84;50.69
75489;HTU21D;64069;46.396;48.102;2023-04-19T05:01:41;0.00;51.58
75489;HTU21D;64069;46.396;48.102;2023-04-19T05:04:07;14.96;50.85
75489;HTU21D;64069;46.396;48.102;2023-04-19T05:06:51;14.96;49.74
75489;HTU21D;64069;46.396;48.102;2023-04-19T05:09:22;15.07;49.35
75489;HTU21D;64069;46.396;48.102;2023-04-19T05:11:49;15.04;45.13
75489;HTU21D;64069;46.396;48.102;2023-04-19T05:14:14;14.98;44.09
75489;HTU21D;64069;46.396;48.102;2023-04-19T05:16:41;15.00;42.54
75489;HTU21D;64069;46.396;48.102;2023-04-19T05:19:07;15.03;43.77
75489;HTU21D;64069;46.396;48.102;2023-04-19T05:21:38;15.14;43.55
75489;HTU21D;64069;46.396;48.102;2023-04-19T05:24:06;15.28;44.13
75489;HTU21D;64069;46.396;48.102;2023-04-19T05:26:35;15.46;44.45
75489;HTU21D;64069;46.396;48.102;2023-04-19T05:29:02;15.52;43.25
75489;HTU21D;64069;46.396;48.102;2023-04-19T05:31:43;15.57;42.89
75489;HTU21D;64069;46.396;48.102;2023-04-19T05:34:20;15.70;41.99
75489;HTU21D;64069;46.396;48.102;2023-04-19T05:36:45;15.78;41.46
75489;HTU21D;64069;46.396;48.102;2023-04-19T05:39:11;15.85;39.30
75489;HTU21D;64069;46.396;48.102;2023-04-19T05:41:37;15.84;39.03
75489;HTU21D;64069;46.396;48.102;2023-04-19T05:44:04;15.97;39.59
75489;HTU21D;64069;46.396;48.102;2023-04-19T05:46:30;16.10;38.98
75489;HTU21D;64069;46.396;48.102;2023-04-19T05:48:56;0.00;38.17
75489;HTU21D;64069;46.396;48.102;2023-04-19T05:51:40;16.32;37.72
75489;HTU21D;64069;46.396;48.102;2023-04-19T05:54:24;16.42;36.98
75489;HTU21D;64069;46.396;48.102;2023-04-19T05:56:50;16.39;35.35
75489;HTU21D;64069;46.396;48.102;2023-04-19T05:59:16;16.42;35.39
75489;HTU21D;64069;46.396;48.102;2023-04-19T06:01:42;16.57;36.23
75489;HTU21D;64069;46.396;48.102;2023-04-19T06:04:08;16.78;36.45
75489;HTU21D;64069;46.396;48.102;2023-04-19T06:06:33;0.00;35.57
75489;HTU21D;64069;46.396;48.102;2023-04-19T06:08:59;17.16;36.27
75489;HTU21D;64069;46.396;48.102;2023-04-19T06:11:25;17.30;34.63
75489;HTU21D;64069;46.396;48.102;2023-04-19T06:13:51;17.31;33.74
75489;HTU21D;64069;46.396;48.102;2023-04-19T06:16:17;17.33;33.83
75489;HTU21D;64069;46.396;48.102;2023-04-19T06:18:43;17.24;33.63
75489;HTU21D;64069;46.396;48.102;2023-04-19T06:21:08;17.21;33.48
75489;HTU21D;64069;46.396;48.102;2023-04-19T06:23:34;17.21;33.47
75489;HTU21D;64069;46.396;48.102;2023-04-19T06:26:00;17.15;32.59
75489;HTU21D;64069;46.396;48.102;2023-04-19T06:28:29;17.01;33.50
75489;HTU21D;64069;46.396;48.102;2023-04-19T06:30:54;16.94;33.27
75489;HTU21D;64069;46.396;48.102;2023-04-19T06:33:20;16.96;33.29
75489;HTU21D;64069;46.396;48.102;2023-04-19T06:35:46;17.06;32.60
75489;HTU21D;64069;46.396;48.102;2023-04-19T06:38:11;17.14;33.47
75489;HTU21D;64069;46.396;48.102;2023-04-19T06:40:37;17.32;32.56
75489;HTU21D;64069;46.396;48.102;2023-04-19T06:43:03;17.47;32.79
75489;HTU21D;64069;46.396;48.102;2023-04-19T06:45:29;17.63;31.81
75489;HTU21D;64069;46.396;48.102;2023-04-19T06:47:54;17.67;31.28
75489;HTU21D;64069;46.396;48.102;2023-04-19T06:50:20;17.78;31.28
75489;HTU21D;64069;46.396;48.102;2023-04-19T06:52:47;17.75;31.55
75489;HTU21D;64069;46.396;48.102;2023-04-19T06:55:12;17.62;30.96
75489;HTU21D;64069;46.396;48.102;2023-04-19T06:57:38;17.52;32.22
75489;HTU21D;64069;46.396;48.102;2023-04-19T07:00:04;17.45;31.23
75489;HTU21D;64069;46.396;48.102;2023-04-19T07:02:31;17.35;31.83
75489;HTU21D;64069;46.396;48.102;2023-04-19T07:04:57;17.31;31.25
75489;HTU21D;64069;46.396;48.102;2023-04-19T07:07:22;17.36;31.80
75489;HTU21D;64069;46.396;48.102;2023-04-19T07:09:48;17.49;31.13
75489;HTU21D;64069;46.396;48.102;2023-04-19T07:12:14;17.67;31.75
75489;HTU21D;64069;46.396;48.102;2023-04-19T07:14:39;17.93;31.80
75489;HTU21D;64069;46.396;48.102;2023-04-19T07:17:05;18.25;31.87
75489;HTU21D;64069;46.396;48.102;2023-04-19T07:19:31;18.32;31.59
75489;HTU21D;64069;46.396;48.102;2023-04-19T07:21:57;18.39;30.99
75489;HTU21D;64069;46.396;48.102;2023-04-19T07:24:23;18.24;29.78
75489;HTU21D;64069;46.396;48.102;2023-04-19T07:26:50;18.13;30.58
75489;HTU21D;64069;46.396;48.102;2023-04-19T07:29:16;18.06;30.19
75489;HTU21D;64069;46.396;48.102;2023-04-19T07:31:42;17.96;30.61
75489;HTU21D;64069;46.396;48.102;2023-04-19T07:34:07;17.85;30.43
75489;HTU21D;64069;46.396;48.102;2023-04-19T07:36:33;17.72;29.64
75489;HTU21D;64069;46.396;48.102;2023-04-19T07:38:59;17.45;29.09
75489;HTU21D;64069;46.396;48.102;2023-04-19T07:41:25;17.16;30.18
75489;HTU21D;64069;46.396;48.102;2023-04-19T07:43:51;17.16;29.96
75489;HTU21D;64069;46.396;48.102;2023-04-19T07:46:17;17.20;30.43
75489;HTU21D;64069;46.396;48.102;2023-04-19T07:48:43;17.39;30.44
75489;HTU21D;64069;46.396;48.102;2023-04-19T07:51:13;17.35;29.74
75489;HTU21D;64069;46.396;48.102;2023-04-19T07:53:39;17.36;30.59
75489;HTU21D;64069;46.396;48.102;2023-04-19T07:56:06;17.51;29.94
75489;HTU21D;64069;46.396;48.102;2023-04-19T07:58:32;17.60;30.08
75489;HTU21D;64069;46.396;48.102;2023-04-19T08:00:58;17.69;29.81
75489;HTU21D;64069;46.396;48.102;2023-04-19T08:03:23;17.80;29.68
75489;HTU21D;64069;46.396;48.102;2023-04-19T08:05:49;17.94;30.09
75489;HTU21D;64069;46.396;48.102;2023-04-19T08:08:15;18.13;29.90
75489;HTU21D;64069;46.396;48.102;2023-04-19T08:10:42;18.24;29.43
75489;HTU21D;64069;46.396;48.102;2023-04-19T08:13:07;18.34;29.57
75489;HTU21D;64069;46.396;48.102;2023-04-19T08:15:33;18.53;29.36
75489;HTU21D;64069;46.396;48.102;2023-04-19T08:17:59;18.52;28.94
75489;HTU21D;64069;46.396;48.102;2023-04-19T08:20:25;18.72;29.27
75489;HTU21D;64069;46.396;48.102;2023-04-19T08:22:51;0.00;28.20
75489;HTU21D;64069;46.396;48.102;2023-04-19T08:25:18;18.70;28.45
75489;HTU21D;64069;46.396;48.102;2023-04-19T08:27:44;18.87;28.63
75489;HTU21D;64069;46.396;48.102;2023-04-19T08:30:10;19.00;28.58
75489;HTU21D;64069;46.396;48.102;2023-04-19T08:32:36;18.98;28.08
75489;HTU21D;64069;46.396;48.102;2023-04-19T08:35:02;19.11;28.55
75489;HTU21D;64069;46.396;48.102;2023-04-19T08:37:28;19.31;28.13
75489;HTU21D;64069;46.396;48.102;2023-04-19T08:39:54;19.22;27.49
75489;HTU21D;64069;46.396;48.102;2023-04-19T08:42:20;19.20;28.02
75489;HTU21D;64069;46.396;48.102;2023-04-19T08:44:46;19.11;27.09
75489;HTU21D;64069;46.396;48.102;2023-04-19T08:47:12;19.16;27.79
75489;HTU21D;64069;46.396;48.102;2023-04-19T08:49:40;19.14;26.39
75489;HTU21D;64069;46.396;48.102;2023-04-19T08:52:07;19.05;26.76
75489;HTU21D;64069;46.396;48.102;2023-04-19T08:54:34;19.06;26.28
75489;HTU21D;64069;46.396;48.102;2023-04-19T08:56:59;19.07;26.41
75489;HTU21D;64069;46.396;48.102;2023-04-19T08:59:26;19.00;26.04
75489;HTU21D;64069;46.396;48.102;2023-04-19T09:01:53;18.97;25.93
75489;HTU21D;64069;46.396;48.102;2023-04-19T09:04:20;18.94;24.59
75489;HTU21D;64069;46.396;48.102;2023-04-19T09:06:46;18.73;25.43
75489;HTU21D;64069;46.396;48.102;2023-04-19T09:09:16;18.73;25.57
75489;HTU21D;64069;46.396;48.102;2023-04-19T09:11:42;0.00;25.63
75489;HTU21D;64069;46.396;48.102;2023-04-19T09:14:14;18.74;26.55
75489;HTU21D;64069;46.396;48.102;2023-04-19T09:16:40;18.79;25.68
75489;HTU21D;64069;46.396;48.102;2023-04-19T09:19:06;18.71;26.09
75489;HTU21D;64069;46.396;48.102;2023-04-19T09:21:36;18.82;26.73
75489;HTU21D;64069;46.396;48.102;2023-04-19T09:24:03;18.85;26.26
75489;HTU21D;64069;46.396;48.102;2023-04-19T09:26:29;18.82;26.31
75489;HTU21D;64069;46.396;48.102;2023-04-19T09:28:58;18.69;25.78
75489;HTU21D;64069;46.396;48.102;2023-04-19T09:31:25;18.66;25.78
75489;HTU21D;64069;46.396;48.102;2023-04-19T09:33:52;18.59;25.85
75489;HTU21D;64069;46.396;48.102;2023-04-19T09:36:28;18.58;25.36
75489;HTU21D;64069;46.396;48.102;2023-04-19T09:38:55;18.53;26.06
75489;HTU21D;64069;46.396;48.102;2023-04-19T09:41:21;18.56;25.82
75489;HTU21D;64069;46.396;48.102;2023-04-19T09:43:46;18.66;26.05
75489;HTU21D;64069;46.396;48.102;2023-04-19T09:51:43;18.51;24.52
75489;HTU21D;64069;46.396;48.102;2023-04-19T09:54:10;18.41;24.35
75489;HTU21D;64069;46.396;48.102;2023-04-19T09:56:36;18.21;24.60
75489;HTU21D;64069;46.396;48.102;2023-04-19T09:59:03;18.09;25.00
75489;HTU21D;64069;46.396;48.102;2023-04-19T10:01:30;18.07;25.30
75489;HTU21D;64069;46.396;48.102;2023-04-19T10:03:59;18.14;25.76
75489;HTU21D;64069;46.396;48.102;2023-04-19T10:06:25;18.36;25.37
75489;HTU21D;64069;46.396;48.102;2023-04-19T10:08:52;18.36;25.40
75489;HTU21D;64069;46.396;48.102;2023-04-19T10:11:19;18.36;24.77
75489;HTU21D;64069;46.396;48.102;2023-04-19T10:13:46;18.33;25.21
75489;HTU21D;64069;46.396;48.102;2023-04-19T10:16:13;18.46;24.59
75489;HTU21D;64069;46.396;48.102;2023-04-19T10:18:39;18.43;24.43
75489;HTU21D;64069;46.396;48.102;2023-04-19T10:21:05;18.43;24.79
75489;HTU21D;64069;46.396;48.102;2023-04-19T10:23:31;18.39;24.47
75489;HTU21D;64069;46.396;48.102;2023-04-19T10:25:57;18.38;24.98
75489;HTU21D;64069;46.396;48.102;2023-04-19T10:28:24;18.37;24.85
75489;HTU21D;64069;46.396;48.102;2023-04-19T10:30:53;18.29;24.59
75489;HTU21D;64069;46.396;48.102;2023-04-19T10:33:23;18.27;24.64
75489;HTU21D;64069;46.396;48.102;2023-04-19T10:35:49;18.29;24.81
75489;HTU21D;64069;46.396;48.102;2023-04-19T10:38:14;18.22;24.48
75489;HTU21D;64069;46.396;48.102;2023-04-19T10:43:16;18.17;24.82
75489;HTU21D;64069;46.396;48.102;2023-04-19T10:45:42;18.14;24.33
75489;HTU21D;64069;46.396;48.102;2023-04-19T10:48:50;18.06;24.31
75489;HTU21D;64069;46.396;48.102;2023-04-19T10:51:21;18.03;24.49
75489;HTU21D;64069;46.396;48.102;2023-04-19T10:53:53;17.94;23.32
75489;HTU21D;64069;46.396;48.102;2023-04-19T10:57:04;17.81;23.72
75489;HTU21D;64069;46.396;48.102;2023-04-19T11:04:04;17.81;23.88
75489;HTU21D;64069;46.396;48.102;2023-04-19T11:06:30;17.89;23.75
75489;HTU21D;64069;46.396;48.102;2023-04-19T11:08:56;17.89;23.19
75489;HTU21D;64069;46.396;48.102;2023-04-19T11:11:22;17.90;23.27
75489;HTU21D;64069;46.396;48.102;2023-04-19T11:13:50;17.98;23.50
75489;HTU21D;64069;46.396;48.102;2023-04-19T11:16:15;18.04;22.56
75489;HTU21D;64069;46.396;48.102;2023-04-19T11:18:45;18.10;22.87
75489;HTU21D;64069;46.396;48.102;2023-04-19T11:21:11;18.09;22.63
75489;HTU21D;64069;46.396;48.102;2023-04-19T11:23:38;18.07;23.08
75489;HTU21D;64069;46.396;48.102;2023-04-19T11:26:04;18.09;23.11
75489;HTU21D;64069;46.396;48.102;2023-04-19T11:28:34;18.13;22.67
75489;HTU21D;64069;46.396;48.102;2023-04-19T11:31:00;18.10;22.43
75489;HTU21D;64069;46.396;48.102;2023-04-19T11:33:26;18.04;22.66
75489;HTU21D;64069;46.396;48.102;2023-04-19T11:35:53;18.00;22.75
75489;HTU21D;64069;46.396;48.102;2023-04-19T11:38:18;17.99;22.35
75489;HTU21D;64069;46.396;48.102;2023-04-19T11:40:44;17.94;22.11
75489;HTU21D;64069;46.396;48.102;2023-04-19T11:43:10;17.85;23.03
75489;HTU21D;64069;46.396;48.102;2023-04-19T11:45:36;17.79;23.11
75489;HTU21D;64069;46.396;48.102;2023-04-19T11:48:06;17.80;23.30
75489;HTU21D;64069;46.396;48.102;2023-04-19T11:50:42;17.81;23.05
75489;HTU21D;64069;46.396;48.102;2023-04-19T11:53:10;17.79;23.17
75489;HTU21D;64069;46.396;48.102;2023-04-19T11:55:36;17.77;23.24
75489;HTU21D;64069;46.396;48.102;2023-04-19T11:58:02;17.76;23.70
75489;HTU21D;64069;46.396;48.102;2023-04-19T12:00:28;17.78;23.84
75489;HTU21D;64069;46.396;48.102;2023-04-19T12:02:54;17.72;23.18
75489;HTU21D;64069;46.396;48.102;2023-04-19T12:05:20;17.68;23.54
75489;HTU21D;64069;46.396;48.102;2023-04-19T12:10:29;17.84;23.84
75489;HTU21D;64069;46.396;48.102;2023-04-19T12:12:55;17.97;24.05
75489;HTU21D;64069;46.396;48.102;2023-04-19T12:15:21;18.06;24.04
75489;HTU21D;64069;46.396;48.102;2023-04-19T12:17:59;18.08;24.01
75489;HTU21D;64069;46.396;48.102;2023-04-19T12:20:36;18.06;24.38
75489;HTU21D;64069;46.396;48.102;2023-04-19T12:23:05;18.19;24.52
75489;HTU21D;64069;46.396;48.102;2023-04-19T12:25:36;18.20;24.21
75489;HTU21D;64069;46.396;48.102;2023-04-19T12:28:02;18.18;24.65
75489;HTU21D;64069;46.396;48.102;2023-04-19T12:30:28;18.27;25.05
75489;HTU21D;64069;46.396;48.102;2023-04-19T12:32:54;18.34;25.33
75489;HTU21D;64069;46.396;48.102;2023-04-19T12:35:21;18.33;25.70
75489;HTU21D;64069;46.396;48.102;2023-04-19T12:37:47;18.25;25.65
75489;HTU21D;64069;46.396;48.102;2023-04-19T12:40:13;18.18;25.88
75489;HTU21D;64069;46.396;48.102;2023-04-19T12:42:39;18.10;26.02
75489;HTU21D;64069;46.396;48.102;2023-04-19T12:45:05;18.02;26.30
75489;HTU21D;64069;46.396;48.102;2023-04-19T12:47:31;17.94;26.67
75489;HTU21D;64069;46.396;48.102;2023-04-19T12:49:57;0.00;27.00
75489;HTU21D;64069;46.396;48.102;2023-04-19T12:52:23;17.95;27.32
75489;HTU21D;64069;46.396;48.102;2023-04-19T12:54:48;17.89;27.52
75489;HTU21D;64069;46.396;48.102;2023-04-19T12:57:14;17.79;27.74
75489;HTU21D;64069;46.396;48.102;2023-04-19T12:59:40;17.70;27.93
75489;HTU21D;64069;46.396;48.102;2023-04-19T13:02:09;17.66;28.19
75489;HTU21D;64069;46.396;48.102;2023-04-19T13:04:35;17.72;28.49
75489;HTU21D;64069;46.396;48.102;2023-04-19T13:07:01;17.70;28.52
75489;HTU21D;64069;46.396;48.102;2023-04-19T13:09:27;17.65;28.40
75489;HTU21D;64069;46.396;48.102;2023-04-19T13:11:56;17.59;28.90
75489;HTU21D;64069;46.396;48.102;2023-04-19T13:14:22;17.59;29.11
75489;HTU21D;64069;46.396;48.102;2023-04-19T13:16:48;17.53;29.18
75489;HTU21D;64069;46.396;48.102;2023-04-19T13:19:14;17.50;29.19
75489;HTU21D;64069;46.396;48.102;2023-04-19T13:21:43;17.44;29.33
75489;HTU21D;64069;46.396;48.102;2023-04-19T13:24:08;17.44;29.22
75489;HTU21D;64069;46.396;48.102;2023-04-19T13:26:34;17.39;29.32
75489;HTU21D;64069;46.396;48.102;2023-04-19T13:29:00;17.32;29.40
75489;HTU21D;64069;46.396;48.102;2023-04-19T13:31:26;17.28;29.52
75489;HTU21D;64069;46.396;48.102;2023-04-19T13:33:52;17.23;29.28
75489;HTU21D;64069;46.396;48.102;2023-04-19T13:36:18;17.16;29.20
75489;HTU21D;64069;46.396;48.102;2023-04-19T13:38:44;17.13;29.35
75489;HTU21D;64069;46.396;48.102;2023-04-19T13:41:09;17.15;29.06
75489;HTU21D;64069;46.396;48.102;2023-04-19T13:43:36;17.13;28.93
75489;HTU21D;64069;46.396;48.102;2023-04-19T13:46:01;17.13;29.13
75489;HTU21D;64069;46.396;48.102;2023-04-19T13:48:27;17.13;29.13
75489;HTU21D;64069;46.396;48.102;2023-04-19T13:50:54;17.09;29.06
75489;HTU21D;64069;46.396;48.102;2023-04-19T13:53:38;17.07;28.80
75489;HTU21D;64069;46.396;48.102;2023-04-19T13:56:05;17.04;28.36
75489;HTU21D;64069;46.396;48.102;2023-04-19T13:58:34;16.99;28.63
75489;HTU21D;64069;46.396;48.102;2023-04-19T14:01:00;16.93;28.10
75489;HTU21D;64069;46.396;48.102;2023-04-19T14:06:10;16.85;28.33
75489;HTU21D;64069;46.396;48.102;2023-04-19T14:08:36;16.85;28.16
75489;HTU21D;64069;46.396;48.102;2023-04-19T14:11:02;16.82;28.03
75489;HTU21D;64069;46.396;48.102;2023-04-19T14:13:28;16.79;28.38
75489;HTU21D;64069;46.396;48.102;2023-04-19T14:15:53;16.77;27.77
75489;HTU21D;64069;46.396;48.102;2023-04-19T14:18:23;16.73;27.85
75489;HTU21D;64069;46.396;48.102;2023-04-19T14:20:49;16.69;27.96
75489;HTU21D;64069;46.396;48.102;2023-04-19T14:23:14;16.63;28.07
75489;HTU21D;64069;46.396;48.102;2023-04-19T14:25:40;16.58;28.19
75489;HTU21D;64069;46.396;48.102;2023-04-19T14:28:06;16.52;28.36
75489;HTU21D;64069;46.396;48.102;2023-04-19T14:30:32;16.50;28.36
75489;HTU21D;64069;46.396;48.102;2023-04-19T14:32:57;16.45;28.35
75489;HTU21D;64069;46.396;48.102;2023-04-19T14:35:23;16.40;28.57
75489;HTU21D;64069;46.396;48.102;2023-04-19T14:37:49;16.35;28.97
75489;HTU21D;64069;46.396;48.102;2023-04-19T14:40:16;16.29;29.64
75489;HTU21D;64069;46.396;48.102;2023-04-19T14:42:44;16.19;30.32
75489;HTU21D;64069;46.396;48.102;2023-04-19T14:45:10;16.10;30.58
75489;HTU21D;64069;46.396;48.102;2023-04-19T14:47:35;15.98;30.81
75489;HTU21D;64069;46.396;48.102;2023-04-19T14:50:01;15.89;31.09
75489;HTU21D;64069;46.396;48.102;2023-04-19T14:52:27;15.81;31.30
75489;HTU21D;64069;46.396;48.102;2023-04-19T14:54:54;15.69;31.43
75489;HTU21D;64069;46.396;48.102;2023-04-19T14:57:21;15.60;31.50
75489;HTU21D;64069;46.396;48.102;2023-04-19T14:59:47;15.51;31.67
75489;HTU21D;64069;46.396;48.102;2023-04-19T15:02:16;15.40;31.86
75489;HTU21D;64069;46.396;48.102;2023-04-19T15:04:41;15.30;32.09
75489;HTU21D;64069;46.396;48.102;2023-04-19T15:07:07;15.21;32.55
75489;HTU21D;64069;46.396;48.102;2023-04-19T15:09:33;15.11;32.90
75489;HTU21D;64069;46.396;48.102;2023-04-19T15:11:58;15.00;33.18
75489;HTU21D;64069;46.396;48.102;2023-04-19T15:14:27;14.87;33.89
75489;HTU21D;64069;46.396;48.102;2023-04-19T15:16:53;14.79;34.02
75489;HTU21D;64069;46.396;48.102;2023-04-19T15:19:19;14.68;34.09
75489;HTU21D;64069;46.396;48.102;2023-04-19T15:21:46;14.57;34.22
75489;HTU21D;64069;46.396;48.102;2023-04-19T15:24:12;14.47;34.74